createdAt,value
2023-02-16T00:02:02.803Z,100.00
2023-02-16T00:05:24.284Z,100.00
2023-02-16T00:08:30.297Z,100.00
2023-02-16T00:11:54.738Z,100.00
2023-02-16T00:15:01.224Z,100.00
2023-02-16T00:18:17.489Z,100.00
2023-02-16T00:21:25.030Z,100.00
2023-02-16T00:24:31.872Z,100.00
2023-02-16T00:27:39.378Z,100.00
2023-02-16T00:30:45.620Z,100.00
2023-02-16T00:33:51.853Z,100.00
2023-02-16T00:37:01.529Z,100.00
2023-02-16T00:40:09.509Z,100.00
2023-02-16T00:43:27.329Z,100.00
2023-02-16T00:46:33.920Z,100.00
2023-02-16T00:49:39.975Z,100.00
2023-02-16T00:52:48.601Z,100.00
2023-02-16T00:55:55.185Z,100.00
2023-02-16T00:59:03.669Z,100.00
2023-02-16T01:02:09.537Z,100.00
2023-02-16T01:05:15.685Z,100.00
2023-02-16T01:08:40.628Z,100.00
2023-02-16T01:11:46.912Z,100.00
2023-02-16T01:14:55.801Z,100.00
2023-02-16T01:18:01.891Z,100.00
2023-02-16T01:21:08.094Z,100.00
2023-02-16T01:24:15.905Z,100.00
2023-02-16T01:27:22.350Z,100.00
2023-02-16T01:30:29.119Z,100.00
2023-02-16T01:33:35.769Z,100.00
2023-02-16T01:36:44.497Z,100.00
2023-02-16T01:39:52.912Z,100.00
2023-02-16T01:43:05.369Z,100.00
2023-02-16T01:46:18.169Z,100.00
2023-02-16T01:49:24.553Z,100.00
2023-02-16T01:52:35.983Z,100.00
2023-02-16T01:55:46.447Z,100.00
2023-02-16T01:58:56.113Z,100.00
2023-02-16T02:02:03.904Z,100.00
2023-02-16T02:05:37.186Z,100.00
2023-02-16T02:08:48.107Z,100.00
2023-02-16T02:12:02.024Z,100.00
2023-02-16T02:15:10.304Z,100.00
2023-02-16T02:18:16.538Z,100.00
2023-02-16T02:22:04.629Z,100.00
2023-02-16T02:25:36.930Z,100.00
2023-02-16T02:28:55.399Z,100.00
2023-02-16T02:32:08.876Z,100.00
2023-02-16T02:35:33.894Z,100.00
2023-02-16T02:38:49.081Z,100.00
2023-02-16T02:42:06.840Z,100.00
2023-02-16T02:45:20.120Z,100.00
2023-02-16T02:48:31.787Z,100.00
2023-02-16T02:51:40.473Z,100.00
2023-02-16T02:55:06.676Z,100.00
2023-02-16T02:58:31.090Z,100.00
2023-02-16T03:01:43.011Z,100.00
2023-02-16T03:04:49.817Z,100.00
2023-02-16T03:08:06.542Z,100.00
2023-02-16T03:11:33.706Z,100.00
2023-02-16T03:14:45.163Z,100.00
2023-02-16T03:18:13.630Z,100.00
2023-02-16T03:21:37.097Z,100.00
2023-02-16T03:25:00.841Z,100.00
2023-02-16T03:28:26.473Z,100.00
2023-02-16T03:31:36.062Z,100.00
2023-02-16T03:34:44.221Z,100.00
2023-02-16T03:37:50.777Z,100.00
2023-02-16T03:40:57.630Z,100.00
2023-02-16T03:44:03.738Z,100.00
2023-02-16T03:47:11.178Z,100.00
2023-02-16T03:50:19.084Z,100.00
2023-02-16T03:53:25.428Z,100.00
2023-02-16T03:56:31.959Z,100.00
2023-02-16T03:59:38.269Z,100.00
2023-02-16T04:02:44.549Z,100.00
2023-02-16T04:05:52.118Z,100.00
2023-02-16T04:08:58.458Z,100.00
2023-02-16T04:12:21.974Z,100.00
2023-02-16T04:15:29.718Z,100.00
2023-02-16T04:18:36.276Z,100.00
2023-02-16T04:21:44.190Z,100.00
2023-02-16T04:24:50.530Z,100.00
2023-02-16T04:27:56.837Z,100.00
2023-02-16T04:31:03.306Z,100.00
2023-02-16T04:34:09.615Z,100.00
2023-02-16T04:37:17.012Z,100.00
2023-02-16T04:40:23.254Z,100.00
2023-02-16T04:43:29.426Z,100.00
2023-02-16T04:46:36.062Z,100.00
2023-02-16T04:49:42.504Z,100.00
2023-02-16T04:52:50.252Z,100.00
2023-02-16T04:55:56.341Z,100.00
2023-02-16T04:59:02.351Z,100.00
2023-02-16T05:02:08.714Z,100.00
2023-02-16T05:05:15.120Z,100.00
2023-02-16T05:08:22.663Z,100.00
2023-02-16T05:11:46.364Z,100.00
2023-02-16T05:14:52.774Z,100.00
2023-02-16T05:17:59.086Z,100.00
2023-02-16T05:21:27.625Z,100.00
2023-02-16T05:24:36.157Z,100.00
2023-02-16T05:27:42.234Z,100.00
2023-02-16T05:30:48.649Z,100.00
2023-02-16T05:33:55.256Z,100.00
2023-02-16T05:37:01.509Z,100.00
2023-02-16T05:40:11.006Z,100.00
2023-02-16T05:43:17.297Z,100.00
2023-02-16T05:46:24.748Z,100.00
2023-02-16T05:49:31.478Z,100.00
2023-02-16T05:52:37.893Z,100.00
2023-02-16T05:55:45.555Z,100.00
2023-02-16T05:58:52.599Z,100.00
2023-02-16T06:01:59.048Z,100.00
2023-02-16T06:05:05.782Z,100.00
2023-02-16T06:08:12.372Z,100.00
2023-02-16T06:11:37.957Z,100.00
2023-02-16T06:14:44.402Z,100.00
2023-02-16T06:17:50.386Z,100.00
2023-02-16T06:20:58.353Z,100.00
2023-02-16T06:24:04.746Z,100.00
2023-02-16T06:27:12.339Z,99.00
2023-02-16T06:30:19.463Z,99.06
2023-02-16T06:33:25.733Z,97.66
2023-02-16T06:36:32.110Z,93.42
2023-02-16T06:39:38.437Z,92.68
2023-02-16T06:42:46.115Z,93.80
2023-02-16T06:45:52.492Z,96.99
2023-02-16T06:48:58.792Z,100.00
2023-02-16T06:52:05.262Z,100.00
2023-02-16T06:55:11.618Z,100.00
2023-02-16T06:58:19.340Z,100.00
2023-02-16T07:01:26.244Z,100.00
2023-02-16T07:04:32.727Z,100.00
2023-02-16T07:07:38.915Z,100.00
2023-02-16T07:10:50.183Z,100.00
2023-02-16T07:13:58.524Z,100.00
2023-02-16T07:17:04.986Z,99.77
2023-02-16T07:20:13.590Z,99.00
2023-02-16T07:23:19.891Z,100.00
2023-02-16T07:26:26.444Z,100.00
2023-02-16T07:29:34.358Z,100.00
2023-02-16T07:32:40.471Z,99.33
2023-02-16T07:35:46.598Z,94.67
2023-02-16T07:38:53.769Z,94.06
2023-02-16T07:41:59.741Z,98.47
2023-02-16T07:45:08.124Z,95.43
2023-02-16T07:48:14.845Z,93.54
2023-02-16T07:51:25.253Z,95.62
2023-02-16T07:54:33.102Z,92.45
2023-02-16T07:57:40.906Z,89.44
2023-02-16T08:00:48.618Z,89.32
2023-02-16T08:03:55.515Z,87.02
2023-02-16T08:07:01.813Z,88.11
2023-02-16T08:10:09.034Z,85.55
2023-02-16T08:13:15.233Z,87.35
2023-02-16T08:16:24.631Z,85.74
2023-02-16T08:19:31.211Z,83.71
2023-02-16T08:22:38.381Z,83.17
2023-02-16T08:25:45.954Z,84.58
2023-02-16T08:28:52.841Z,80.26
2023-02-16T08:32:01.589Z,80.14
2023-02-16T08:35:10.272Z,78.10
2023-02-16T08:38:17.450Z,79.50
2023-02-16T08:41:27.004Z,81.69
2023-02-16T08:44:33.437Z,80.64
2023-02-16T08:47:41.070Z,79.02
2023-02-16T08:50:53.573Z,77.14
2023-02-16T08:54:02.360Z,75.40
2023-02-16T08:57:09.996Z,73.68
2023-02-16T09:00:35.704Z,74.67
2023-02-16T09:03:44.981Z,73.08
2023-02-16T09:06:52.558Z,70.85
2023-02-16T09:09:58.617Z,68.13
2023-02-16T09:13:04.630Z,68.41
2023-02-16T09:16:12.867Z,66.87
2023-02-16T09:19:22.481Z,67.24
2023-02-16T09:22:28.738Z,65.14
2023-02-16T09:25:37.018Z,65.31
2023-02-16T09:28:44.742Z,63.09
2023-02-16T09:31:52.297Z,63.16
2023-02-16T09:34:59.977Z,66.05
2023-02-16T09:38:07.838Z,61.41
2023-02-16T09:41:24.375Z,61.87
2023-02-16T09:44:39.873Z,59.16
2023-02-16T09:47:51.277Z,58.71
2023-02-16T09:51:00.682Z,58.33
2023-02-16T09:54:21.438Z,57.55
2023-02-16T09:57:43.415Z,56.24
2023-02-16T10:00:53.928Z,57.38
2023-02-16T10:04:17.052Z,57.13
2023-02-16T10:07:33.334Z,55.35
2023-02-16T10:10:49.444Z,53.33
2023-02-16T10:13:58.310Z,55.33
2023-02-16T10:17:18.416Z,55.07
2023-02-16T10:20:28.171Z,53.86
2023-02-16T10:23:46.678Z,53.11
2023-02-16T10:26:59.606Z,53.11
2023-02-16T10:30:13.780Z,52.66
2023-02-16T10:33:34.671Z,50.78
2023-02-16T10:36:58.626Z,50.18
2023-02-16T10:40:23.312Z,50.90
2023-02-16T10:43:41.687Z,48.76
2023-02-16T10:46:53.343Z,47.76
2023-02-16T10:50:00.057Z,48.56
2023-02-16T10:53:11.629Z,48.10
2023-02-16T10:56:40.754Z,45.36
2023-02-16T10:59:48.410Z,44.22
2023-02-16T11:02:55.550Z,42.65
2023-02-16T11:06:14.860Z,41.19
2023-02-16T11:09:29.440Z,39.77
2023-02-16T11:12:40.124Z,39.94
2023-02-16T11:15:54.720Z,39.71
2023-02-16T11:19:02.650Z,39.74
2023-02-16T11:22:25.957Z,40.12
2023-02-16T11:25:32.482Z,38.93
2023-02-16T11:28:43.006Z,39.05
2023-02-16T11:31:49.309Z,39.48
2023-02-16T11:34:55.632Z,39.29
2023-02-16T11:38:01.961Z,39.53
2023-02-16T11:41:08.701Z,38.71
2023-02-16T11:44:27.878Z,39.96
2023-02-16T11:47:36.264Z,38.91
2023-02-16T11:50:58.063Z,39.54
2023-02-16T11:54:07.920Z,39.44
2023-02-16T11:57:15.873Z,38.43
2023-02-16T12:00:26.681Z,37.99
2023-02-16T12:03:59.940Z,37.94
2023-02-16T12:07:15.672Z,38.29
2023-02-16T12:10:27.905Z,39.57
2023-02-16T12:13:43.103Z,38.18
2023-02-16T12:17:00.570Z,38.28
2023-02-16T12:20:21.828Z,37.54
2023-02-16T12:23:38.368Z,38.56
2023-02-16T12:26:50.186Z,37.55
2023-02-16T12:30:02.637Z,37.65
2023-02-16T12:33:26.283Z,35.74
2023-02-16T12:36:53.322Z,36.75
2023-02-16T12:40:09.140Z,35.08
2023-02-16T12:43:38.542Z,35.21
2023-02-16T12:46:46.969Z,34.99
2023-02-16T12:49:58.994Z,34.51
2023-02-16T12:53:10.773Z,34.88
2023-02-16T12:56:24.009Z,34.80
2023-02-16T12:59:40.917Z,34.73
2023-02-16T13:02:52.460Z,33.99
2023-02-16T13:06:19.721Z,34.03
2023-02-16T13:09:37.505Z,33.32
2023-02-16T13:12:51.253Z,32.66
2023-02-16T13:16:04.926Z,32.86
2023-02-16T13:19:13.440Z,33.15
2023-02-16T13:22:58.919Z,32.82
2023-02-16T13:26:50.392Z,34.05
2023-02-16T13:30:35.180Z,33.77
2023-02-16T13:34:05.751Z,31.94
2023-02-16T13:37:25.442Z,32.57
2023-02-16T13:41:16.628Z,31.97
2023-02-16T13:44:25.739Z,32.82
2023-02-16T13:47:34.700Z,32.60
2023-02-16T13:50:41.561Z,32.42
2023-02-16T13:53:55.738Z,32.26
2023-02-16T13:57:04.692Z,31.87
2023-02-16T14:00:30.321Z,32.28
2023-02-16T14:03:39.472Z,32.23
2023-02-16T14:06:46.434Z,32.22
2023-02-16T14:09:52.633Z,33.17
2023-02-16T14:13:00.649Z,33.04
2023-02-16T14:16:11.831Z,33.51
2023-02-16T14:19:26.109Z,32.91
2023-02-16T14:22:42.672Z,33.91
2023-02-16T14:25:51.278Z,32.92
2023-02-16T14:29:19.244Z,35.34
2023-02-16T14:32:29.632Z,36.02
2023-02-16T14:35:38.438Z,37.86
2023-02-16T14:38:48.218Z,39.35
2023-02-16T14:41:56.027Z,40.38
2023-02-16T14:45:27.799Z,41.08
2023-02-16T14:49:04.145Z,41.31
2023-02-16T14:52:43.802Z,42.54
2023-02-16T14:56:10.519Z,43.42
2023-02-16T14:59:31.999Z,43.58
2023-02-16T15:02:42.146Z,44.04
2023-02-16T15:05:58.001Z,43.93
2023-02-16T15:09:14.215Z,45.17
2023-02-16T15:12:24.324Z,45.16
2023-02-16T15:15:42.108Z,45.72
2023-02-16T15:18:52.902Z,46.57
2023-02-16T15:22:10.551Z,47.83
2023-02-16T15:25:24.420Z,47.88
2023-02-16T15:28:34.037Z,48.00
2023-02-16T15:31:40.714Z,48.37
2023-02-16T15:34:48.762Z,48.57
2023-02-16T15:38:03.315Z,48.23
2023-02-16T15:41:14.338Z,48.28
2023-02-16T15:44:32.710Z,50.09
2023-02-16T15:47:38.840Z,49.64
2023-02-16T15:50:46.923Z,49.83
2023-02-16T15:53:56.633Z,51.57
2023-02-16T15:57:06.855Z,50.51
2023-02-16T16:00:19.547Z,49.12
2023-02-16T16:03:25.606Z,50.20
2023-02-16T16:06:41.934Z,50.91
2023-02-16T16:09:48.670Z,50.50
2023-02-16T16:12:59.159Z,51.04
2023-02-16T16:16:07.375Z,53.17
2023-02-16T16:19:18.556Z,55.04
2023-02-16T16:22:37.189Z,56.70
2023-02-16T16:25:45.918Z,53.05
2023-02-16T16:28:52.987Z,54.58
2023-02-16T16:31:59.682Z,54.73
2023-02-16T16:35:21.426Z,54.86
2023-02-16T16:38:36.171Z,55.45
2023-02-16T16:41:42.269Z,54.34
2023-02-16T16:45:00.166Z,57.01
2023-02-16T16:48:15.530Z,55.44
2023-02-16T16:51:36.494Z,56.51
2023-02-16T16:54:46.537Z,54.64
2023-02-16T16:57:54.436Z,55.26
2023-02-16T17:01:00.618Z,55.41
2023-02-16T17:04:06.742Z,58.99
2023-02-16T17:07:12.878Z,63.08
2023-02-16T17:10:22.273Z,65.22
2023-02-16T17:13:29.040Z,66.57
2023-02-16T17:16:39.708Z,69.75
2023-02-16T17:19:46.087Z,68.55
2023-02-16T17:22:52.521Z,68.58
2023-02-16T17:26:00.326Z,70.01
2023-02-16T17:29:07.605Z,72.77
2023-02-16T17:32:13.882Z,71.02
2023-02-16T17:35:19.845Z,71.15
2023-02-16T17:38:26.361Z,73.70
2023-02-16T17:41:34.164Z,74.72
2023-02-16T17:44:40.408Z,77.08
2023-02-16T17:47:48.257Z,75.59
2023-02-16T17:50:54.676Z,77.39
2023-02-16T17:54:00.798Z,79.04
2023-02-16T17:57:08.554Z,81.18
2023-02-16T18:00:19.281Z,80.46
2023-02-16T18:03:25.597Z,83.62
2023-02-16T18:06:32.040Z,81.70
2023-02-16T18:09:38.486Z,81.30
2023-02-16T18:12:46.372Z,85.28
2023-02-16T18:15:53.007Z,84.28
2023-02-16T18:18:59.635Z,84.62
2023-02-16T18:22:05.804Z,82.64
2023-02-16T18:25:11.803Z,82.32
2023-02-16T18:28:21.602Z,82.41
2023-02-16T18:31:28.039Z,81.28
2023-02-16T18:34:35.155Z,82.90
2023-02-16T18:37:41.577Z,84.94
2023-02-16T18:40:47.755Z,85.64
2023-02-16T18:43:55.154Z,86.26
2023-02-16T18:47:01.888Z,86.12
2023-02-16T18:50:09.184Z,85.55
2023-02-16T18:53:15.269Z,86.89
2023-02-16T18:56:21.516Z,85.77
2023-02-16T18:59:29.227Z,87.93
2023-02-16T19:02:35.443Z,89.44
2023-02-16T19:05:41.727Z,90.38
2023-02-16T19:08:48.607Z,89.89
2023-02-16T19:11:56.199Z,93.79
2023-02-16T19:15:04.165Z,94.43
2023-02-16T19:18:10.499Z,92.75
2023-02-16T19:21:17.045Z,94.39
2023-02-16T19:24:23.314Z,92.27
2023-02-16T19:27:29.878Z,94.16
2023-02-16T19:30:37.537Z,93.78
2023-02-16T19:33:43.976Z,94.79
2023-02-16T19:36:50.257Z,95.05
2023-02-16T19:39:56.501Z,93.58
2023-02-16T19:43:02.877Z,96.22
2023-02-16T19:46:12.021Z,94.84
2023-02-16T19:49:19.359Z,93.93
2023-02-16T19:52:25.817Z,94.88
2023-02-16T19:55:32.281Z,97.80
2023-02-16T19:58:38.802Z,97.38
2023-02-16T20:01:46.631Z,98.01
2023-02-16T20:04:55.300Z,96.49
2023-02-16T20:08:02.338Z,95.85
2023-02-16T20:11:09.113Z,98.30
2023-02-16T20:14:15.532Z,99.55
2023-02-16T20:17:23.691Z,100.00
2023-02-16T20:20:30.400Z,98.79
2023-02-16T20:23:37.663Z,100.00
2023-02-16T20:26:45.866Z,100.00
2023-02-16T20:29:52.031Z,100.00
2023-02-16T20:33:00.380Z,100.00
2023-02-16T20:36:07.403Z,100.00
2023-02-16T20:39:14.138Z,98.56
2023-02-16T20:42:20.863Z,100.00
2023-02-16T20:45:28.787Z,100.00
2023-02-16T20:48:37.193Z,100.00
2023-02-16T20:51:43.644Z,100.00
2023-02-16T20:54:50.266Z,100.00
2023-02-16T20:57:56.868Z,100.00
2023-02-16T21:01:03.212Z,100.00
2023-02-16T21:04:12.454Z,100.00
2023-02-16T21:07:18.536Z,100.00
2023-02-16T21:10:25.433Z,100.00
2023-02-16T21:13:31.938Z,100.00
2023-02-16T21:16:41.887Z,100.00
2023-02-16T21:19:49.870Z,100.00
2023-02-16T21:22:56.316Z,100.00
2023-02-16T21:26:06.334Z,100.00
2023-02-16T21:29:13.220Z,100.00
2023-02-16T21:32:19.493Z,100.00
2023-02-16T21:35:27.172Z,100.00
2023-02-16T21:38:33.743Z,100.00
2023-02-16T21:41:40.428Z,100.00
2023-02-16T21:44:50.244Z,100.00
2023-02-16T21:48:14.157Z,100.00
2023-02-16T21:51:24.937Z,100.00
2023-02-16T21:54:44.940Z,100.00
2023-02-16T21:57:51.153Z,100.00
2023-02-16T22:00:57.689Z,100.00
2023-02-16T22:04:05.810Z,100.00
2023-02-16T22:07:13.529Z,100.00
2023-02-16T22:10:19.791Z,100.00
2023-02-16T22:13:26.041Z,100.00
2023-02-16T22:16:34.311Z,100.00
2023-02-16T22:19:40.832Z,100.00
2023-02-16T22:22:48.698Z,100.00
2023-02-16T22:25:54.822Z,100.00
2023-02-16T22:29:03.681Z,100.00
2023-02-16T22:32:13.271Z,100.00
2023-02-16T22:35:19.753Z,100.00
2023-02-16T22:38:27.956Z,100.00
2023-02-16T22:41:34.923Z,100.00
2023-02-16T22:44:41.472Z,100.00
2023-02-16T22:47:47.597Z,100.00
2023-02-16T22:50:59.059Z,100.00
2023-02-16T22:54:07.438Z,100.00
2023-02-16T22:57:13.522Z,100.00
2023-02-16T23:00:20.165Z,100.00
2023-02-16T23:03:26.776Z,100.00
2023-02-16T23:06:35.085Z,100.00
2023-02-16T23:09:42.650Z,100.00
2023-02-16T23:12:49.042Z,100.00
2023-02-16T23:15:55.412Z,100.00
2023-02-16T23:19:01.890Z,100.00
2023-02-16T23:22:08.278Z,100.00
2023-02-16T23:25:34.673Z,100.00
2023-02-16T23:28:42.988Z,100.00
2023-02-16T23:31:49.630Z,100.00
2023-02-16T23:34:55.879Z,100.00
2023-02-16T23:38:03.814Z,100.00
2023-02-16T23:41:14.450Z,100.00
2023-02-16T23:44:20.772Z,100.00
2023-02-16T23:47:27.450Z,100.00
2023-02-16T23:50:33.949Z,100.00
2023-02-16T23:53:40.156Z,100.00
2023-02-16T23:56:47.953Z,100.00
2023-02-16T23:59:54.323Z,100.00
